UKV5047 ENBR-ENTC
Flight info
| Callsign | UKV5047 |
|---|---|
| Flight time | 2h 2m |
| Altitude | 39000 |
| Route | INTUM DCT BARVI |
| Aircraft | E190/M-SDE3GILORVW/S |
Departure
| Time | 2026-04-29 14:32 |
|---|---|
| Airport | Bergen Airport, Flesland (ENBR) |
Arrival
| Time | 2026-04-29 16:34 |
|---|---|
| Airport | Tromsø Airport (ENTC) |
| Time | Latitude | Longitude | Altitude | Speed | Heading |
|---|---|---|---|---|---|
| 2026-04-29 14:09 | 60.28988 | 5.22641 | 174 ft | 0 kts | 158° |
| 2026-04-29 14:21 | 60.28999 | 5.22631 | 174 ft | 4 kts | 155° |
| 2026-04-29 14:21 | 60.29023 | 5.22613 | 174 ft | 4 kts | 179° |
| 2026-04-29 14:21 | 60.29045 | 5.22624 | 175 ft | 4 kts | 241° |
| 2026-04-29 14:21 | 60.29050 | 5.22648 | 175 ft | 1 kts | 261° |
| 2026-04-29 14:22 | 60.29050 | 5.22651 | 175 ft | 0 kts | 261° |
| 2026-04-29 14:23 | 60.29050 | 5.22647 | 175 ft | 1 kts | 261° |
| 2026-04-29 14:24 | 60.29047 | 5.22614 | 175 ft | 4 kts | 261° |
| 2026-04-29 14:24 | 60.29047 | 5.22611 | 175 ft | 0 kts | 261° |
| 2026-04-29 14:25 | 60.29046 | 5.22603 | 175 ft | 1 kts | 261° |
| 2026-04-29 14:25 | 60.29044 | 5.22570 | 175 ft | 3 kts | 261° |
| 2026-04-29 14:25 | 60.29039 | 5.22504 | 175 ft | 6 kts | 261° |
| 2026-04-29 14:25 | 60.29032 | 5.22420 | 175 ft | 0 kts | 261° |
| 2026-04-29 14:26 | 60.29031 | 5.22402 | 175 ft | 2 kts | 261° |
| 2026-04-29 14:26 | 60.29018 | 5.22375 | 175 ft | 2 kts | 212° |
| 2026-04-29 14:26 | 60.28982 | 5.22376 | 174 ft | 8 kts | 173° |
| 2026-04-29 14:26 | 60.28941 | 5.22352 | 173 ft | 6 kts | 219° |
| 2026-04-29 14:27 | 60.28891 | 5.22288 | 169 ft | 11 kts | 178° |
| 2026-04-29 14:27 | 60.28815 | 5.22311 | 169 ft | 12 kts | 169° |
| 2026-04-29 14:27 | 60.28727 | 5.22346 | 168 ft | 15 kts | 168° |
| 2026-04-29 14:28 | 60.28502 | 5.22418 | 162 ft | 17 kts | 170° |
| 2026-04-29 14:28 | 60.28372 | 5.22464 | 159 ft | 21 kts | 170° |
| 2026-04-29 14:28 | 60.28223 | 5.22506 | 154 ft | 23 kts | 173° |
| 2026-04-29 14:28 | 60.28094 | 5.22546 | 151 ft | 15 kts | 182° |
| 2026-04-29 14:29 | 60.28057 | 5.22448 | 151 ft | 0 kts | 258° |
| 2026-04-29 14:30 | 60.28057 | 5.22443 | 151 ft | 1 kts | 258° |
| 2026-04-29 14:30 | 60.28052 | 5.22396 | 152 ft | 5 kts | 258° |
| 2026-04-29 14:30 | 60.28043 | 5.22302 | 152 ft | 9 kts | 260° |
| 2026-04-29 14:30 | 60.28095 | 5.22233 | 152 ft | 5 kts | 352° |
| 2026-04-29 14:31 | 60.28096 | 5.22233 | 152 ft | 0 kts | 352° |
| 2026-04-29 14:31 | 60.28136 | 5.22220 | 152 ft | 31 kts | 351° |
| 2026-04-29 14:31 | 60.28613 | 5.22061 | 159 ft | 106 kts | 351° |
| 2026-04-29 14:31 | 60.29567 | 5.21745 | 192 ft | 168 kts | 348° |
| 2026-04-29 14:32 | 60.30805 | 5.21312 | 829 ft | 195 kts | 348° |
| 2026-04-29 14:32 | 60.32206 | 5.20871 | 1803 ft | 204 kts | 352° |
| 2026-04-29 14:32 | 60.33581 | 5.20448 | 2822 ft | 199 kts | 350° |
| 2026-04-29 14:32 | 60.34979 | 5.19947 | 3611 ft | 210 kts | 350° |
| 2026-04-29 14:33 | 60.36448 | 5.19419 | 4364 ft | 225 kts | 349° |
| 2026-04-29 14:33 | 60.38102 | 5.18844 | 4791 ft | 255 kts | 349° |
| 2026-04-29 14:33 | 60.39889 | 5.18250 | 5643 ft | 264 kts | 349° |
| 2026-04-29 14:33 | 60.41708 | 5.17638 | 6685 ft | 265 kts | 349° |
| 2026-04-29 14:34 | 60.43528 | 5.17017 | 7707 ft | 265 kts | 348° |
| 2026-04-29 14:34 | 60.45351 | 5.16391 | 8690 ft | 266 kts | 349° |
| 2026-04-29 14:34 | 60.47191 | 5.15779 | 9610 ft | 270 kts | 349° |
| 2026-04-29 14:34 | 60.49091 | 5.15575 | 10340 ft | 285 kts | 7° |
| 2026-04-29 14:35 | 60.50960 | 5.17238 | 10881 ft | 305 kts | 32° |
| 2026-04-29 14:35 | 60.52704 | 5.19782 | 11693 ft | 311 kts | 32° |
| 2026-04-29 14:35 | 60.54487 | 5.22307 | 12651 ft | 314 kts | 31° |
| 2026-04-29 14:35 | 60.56271 | 5.24787 | 13640 ft | 316 kts | 31° |
| 2026-04-29 14:36 | 60.58098 | 5.27336 | 14636 ft | 321 kts | 31° |
| 2026-04-29 14:36 | 60.59942 | 5.29930 | 15593 ft | 324 kts | 31° |
| 2026-04-29 14:36 | 60.61805 | 5.32564 | 16498 ft | 328 kts | 32° |
| 2026-04-29 14:36 | 60.63689 | 5.35248 | 17354 ft | 333 kts | 32° |
| 2026-04-29 14:37 | 60.65595 | 5.37986 | 18183 ft | 338 kts | 32° |
| 2026-04-29 14:37 | 60.67532 | 5.40783 | 18995 ft | 343 kts | 32° |
| 2026-04-29 14:37 | 60.69488 | 5.43616 | 19778 ft | 347 kts | 32° |
| 2026-04-29 14:37 | 60.71469 | 5.46498 | 20556 ft | 350 kts | 32° |
| 2026-04-29 14:38 | 60.73453 | 5.49397 | 21334 ft | 352 kts | 32° |
| 2026-04-29 14:38 | 60.75456 | 5.52338 | 21996 ft | 357 kts | 32° |
| 2026-04-29 14:38 | 60.77479 | 5.55335 | 22596 ft | 362 kts | 32° |
| 2026-04-29 14:38 | 60.79531 | 5.58386 | 23231 ft | 366 kts | 33° |
| 2026-04-29 14:39 | 60.81596 | 5.61471 | 23890 ft | 370 kts | 33° |
| 2026-04-29 14:39 | 60.83682 | 5.64594 | 24483 ft | 373 kts | 33° |
| 2026-04-29 14:39 | 60.85785 | 5.67750 | 25066 ft | 376 kts | 33° |
| 2026-04-29 14:39 | 60.87904 | 5.70946 | 25611 ft | 380 kts | 33° |
| 2026-04-29 14:40 | 60.90044 | 5.74189 | 26147 ft | 384 kts | 33° |
| 2026-04-29 14:40 | 60.92197 | 5.77465 | 26681 ft | 387 kts | 33° |
| 2026-04-29 14:40 | 60.94375 | 5.80792 | 27120 ft | 392 kts | 33° |
| 2026-04-29 14:40 | 60.96575 | 5.84154 | 27599 ft | 395 kts | 32° |
| 2026-04-29 14:41 | 60.98932 | 5.87041 | 28066 ft | 395 kts | 24° |
| 2026-04-29 14:41 | 61.01395 | 5.89571 | 28541 ft | 397 kts | 22° |
| 2026-04-29 14:41 | 61.03892 | 5.92058 | 29000 ft | 400 kts | 22° |
| 2026-04-29 14:41 | 61.06408 | 5.94585 | 29465 ft | 403 kts | 22° |
| 2026-04-29 14:42 | 61.08900 | 5.97113 | 29872 ft | 407 kts | 23° |
| 2026-04-29 14:42 | 61.11444 | 5.99715 | 30313 ft | 409 kts | 23° |
| 2026-04-29 14:42 | 61.14006 | 6.02348 | 30690 ft | 412 kts | 23° |
| 2026-04-29 14:42 | 61.16582 | 6.05002 | 31026 ft | 415 kts | 23° |
| 2026-04-29 14:43 | 61.19169 | 6.07671 | 31374 ft | 417 kts | 23° |
| 2026-04-29 14:43 | 61.21773 | 6.10363 | 31695 ft | 420 kts | 23° |
| 2026-04-29 14:43 | 61.24400 | 6.13083 | 31981 ft | 423 kts | 23° |
| 2026-04-29 14:43 | 61.27039 | 6.15823 | 32305 ft | 424 kts | 23° |
| 2026-04-29 14:44 | 61.29682 | 6.18571 | 32558 ft | 426 kts | 23° |
| 2026-04-29 14:44 | 61.32343 | 6.21339 | 32855 ft | 428 kts | 23° |
| 2026-04-29 14:44 | 61.34998 | 6.24109 | 33257 ft | 426 kts | 23° |
| 2026-04-29 14:44 | 61.37645 | 6.26880 | 33646 ft | 425 kts | 23° |
| 2026-04-29 14:45 | 61.40286 | 6.29650 | 34007 ft | 425 kts | 23° |
| 2026-04-29 14:45 | 61.42929 | 6.32422 | 34286 ft | 426 kts | 23° |
| 2026-04-29 14:45 | 61.45571 | 6.35199 | 34633 ft | 424 kts | 23° |
| 2026-04-29 14:45 | 61.48199 | 6.37966 | 35003 ft | 421 kts | 23° |
| 2026-04-29 14:46 | 61.50828 | 6.40739 | 35085 ft | 427 kts | 23° |
| 2026-04-29 14:46 | 61.56231 | 6.46442 | 34989 ft | 442 kts | 23° |
| 2026-04-29 14:47 | 61.61734 | 6.52284 | 34950 ft | 444 kts | 24° |
| 2026-04-29 14:47 | 61.67247 | 6.58162 | 34954 ft | 444 kts | 24° |
| 2026-04-29 14:48 | 61.72761 | 6.64063 | 34963 ft | 445 kts | 24° |
| 2026-04-29 14:48 | 61.78284 | 6.69997 | 34948 ft | 446 kts | 23° |
| 2026-04-29 14:49 | 61.83779 | 6.75923 | 34956 ft | 447 kts | 23° |
| 2026-04-29 14:49 | 61.89310 | 6.81918 | 34973 ft | 447 kts | 23° |
| 2026-04-29 14:50 | 61.94845 | 6.87937 | 34975 ft | 446 kts | 23° |
| 2026-04-29 14:50 | 62.00372 | 6.93973 | 34974 ft | 446 kts | 23° |
| 2026-04-29 14:51 | 62.05895 | 7.00019 | 34949 ft | 446 kts | 23° |
| 2026-04-29 14:51 | 62.11411 | 7.06096 | 34948 ft | 447 kts | 23° |
| 2026-04-29 14:52 | 62.16927 | 7.12198 | 34938 ft | 447 kts | 23° |
| 2026-04-29 14:52 | 62.22448 | 7.18321 | 34936 ft | 447 kts | 23° |
| 2026-04-29 14:53 | 62.27960 | 7.24470 | 34931 ft | 446 kts | 23° |
| 2026-04-29 14:53 | 62.33469 | 7.30635 | 34937 ft | 445 kts | 23° |
| 2026-04-29 14:54 | 62.38936 | 7.36788 | 34925 ft | 443 kts | 23° |
| 2026-04-29 14:54 | 62.44407 | 7.42949 | 34924 ft | 444 kts | 23° |
| 2026-04-29 14:55 | 62.49841 | 7.49098 | 34931 ft | 444 kts | 23° |
| 2026-04-29 14:55 | 62.55351 | 7.55349 | 34923 ft | 444 kts | 23° |
| 2026-04-29 14:56 | 62.60782 | 7.61556 | 34915 ft | 444 kts | 23° |
| 2026-04-29 14:56 | 62.66257 | 7.67833 | 34930 ft | 445 kts | 23° |
| 2026-04-29 14:57 | 62.71732 | 7.74137 | 34936 ft | 445 kts | 23° |
| 2026-04-29 14:57 | 62.77207 | 7.80456 | 34926 ft | 445 kts | 23° |
| 2026-04-29 14:58 | 62.82681 | 7.86810 | 34918 ft | 446 kts | 23° |
| 2026-04-29 14:58 | 62.88149 | 7.93180 | 34919 ft | 445 kts | 23° |
| 2026-04-29 14:59 | 62.93619 | 7.99577 | 34917 ft | 445 kts | 22° |
| 2026-04-29 14:59 | 62.99092 | 8.06027 | 34916 ft | 446 kts | 23° |
| 2026-04-29 15:00 | 63.04555 | 8.12492 | 34926 ft | 445 kts | 22° |
| 2026-04-29 15:00 | 63.10023 | 8.18953 | 34918 ft | 446 kts | 22° |
| 2026-04-29 15:01 | 63.15481 | 8.25443 | 34917 ft | 446 kts | 23° |
| 2026-04-29 15:01 | 63.20937 | 8.31995 | 34924 ft | 447 kts | 22° |
| 2026-04-29 15:02 | 63.26408 | 8.38534 | 34907 ft | 445 kts | 22° |
| 2026-04-29 15:02 | 63.31826 | 8.45065 | 34917 ft | 443 kts | 22° |
| 2026-04-29 15:03 | 63.37250 | 8.51627 | 34908 ft | 444 kts | 22° |
| 2026-04-29 15:03 | 63.42672 | 8.58226 | 34909 ft | 444 kts | 22° |
| 2026-04-29 15:04 | 63.48085 | 8.64851 | 34933 ft | 444 kts | 22° |
| 2026-04-29 15:04 | 63.53507 | 8.71506 | 34909 ft | 445 kts | 22° |
| 2026-04-29 15:05 | 63.58931 | 8.78195 | 34910 ft | 445 kts | 22° |
| 2026-04-29 15:05 | 63.64318 | 8.84824 | 34902 ft | 445 kts | 22° |
| 2026-04-29 15:06 | 63.69735 | 8.91563 | 34900 ft | 445 kts | 22° |
| 2026-04-29 15:06 | 63.75139 | 8.98357 | 34893 ft | 445 kts | 22° |
| 2026-04-29 15:07 | 63.80559 | 9.05140 | 34910 ft | 445 kts | 22° |
| 2026-04-29 15:07 | 63.85968 | 9.11979 | 34890 ft | 446 kts | 22° |
| 2026-04-29 15:08 | 63.91379 | 9.18862 | 34891 ft | 445 kts | 22° |
| 2026-04-29 15:08 | 63.95916 | 9.24577 | 34883 ft | 445 kts | 22° |
| 2026-04-29 15:09 | 64.01333 | 9.31460 | 34885 ft | 445 kts | 22° |
| 2026-04-29 15:09 | 64.06703 | 9.38339 | 34886 ft | 446 kts | 22° |
| 2026-04-29 15:10 | 64.12129 | 9.45299 | 34870 ft | 447 kts | 22° |
| 2026-04-29 15:10 | 64.17542 | 9.52330 | 34877 ft | 446 kts | 22° |
| 2026-04-29 15:11 | 64.22882 | 9.59345 | 34873 ft | 441 kts | 22° |
| 2026-04-29 15:11 | 64.28218 | 9.66335 | 34870 ft | 442 kts | 22° |
| 2026-04-29 15:12 | 64.33552 | 9.73377 | 34855 ft | 442 kts | 22° |
| 2026-04-29 15:12 | 64.38900 | 9.80371 | 34859 ft | 442 kts | 22° |
| 2026-04-29 15:13 | 64.44232 | 9.87443 | 34851 ft | 442 kts | 22° |
| 2026-04-29 15:13 | 64.49564 | 9.94565 | 34848 ft | 442 kts | 22° |
| 2026-04-29 15:14 | 64.54890 | 10.01728 | 34849 ft | 442 kts | 22° |
| 2026-04-29 15:14 | 64.60244 | 10.08741 | 34853 ft | 442 kts | 22° |
| 2026-04-29 15:15 | 64.65579 | 10.15896 | 34823 ft | 443 kts | 22° |
| 2026-04-29 15:15 | 64.70907 | 10.23133 | 34845 ft | 443 kts | 22° |
| 2026-04-29 15:16 | 64.76249 | 10.30309 | 34829 ft | 443 kts | 22° |
| 2026-04-29 15:16 | 64.81551 | 10.37501 | 34822 ft | 443 kts | 22° |
| 2026-04-29 15:17 | 64.86882 | 10.44769 | 34813 ft | 443 kts | 22° |
| 2026-04-29 15:17 | 64.92201 | 10.52111 | 34826 ft | 443 kts | 22° |
| 2026-04-29 15:18 | 64.97534 | 10.59463 | 34818 ft | 444 kts | 22° |
| 2026-04-29 15:18 | 65.02854 | 10.66914 | 34815 ft | 444 kts | 22° |
| 2026-04-29 15:19 | 65.08189 | 10.74320 | 34816 ft | 444 kts | 22° |
| 2026-04-29 15:19 | 65.13483 | 10.81746 | 34803 ft | 439 kts | 22° |
| 2026-04-29 15:20 | 65.18738 | 10.89204 | 34808 ft | 441 kts | 22° |
| 2026-04-29 15:20 | 65.24008 | 10.96660 | 34772 ft | 441 kts | 21° |
| 2026-04-29 15:21 | 65.29286 | 11.04156 | 34806 ft | 441 kts | 22° |
| 2026-04-29 15:21 | 65.34559 | 11.11684 | 34794 ft | 442 kts | 22° |
| 2026-04-29 15:22 | 65.39832 | 11.19248 | 34797 ft | 442 kts | 22° |
| 2026-04-29 15:22 | 65.45094 | 11.26884 | 34785 ft | 442 kts | 22° |
| 2026-04-29 15:23 | 65.50353 | 11.34543 | 34788 ft | 442 kts | 22° |
| 2026-04-29 15:23 | 65.55621 | 11.42227 | 34783 ft | 443 kts | 22° |
| 2026-04-29 15:24 | 65.60892 | 11.49927 | 34781 ft | 443 kts | 22° |
| 2026-04-29 15:24 | 65.66152 | 11.57686 | 34782 ft | 443 kts | 22° |
| 2026-04-29 15:25 | 65.71411 | 11.65492 | 34776 ft | 443 kts | 22° |
| 2026-04-29 15:25 | 65.76670 | 11.73311 | 34777 ft | 443 kts | 22° |
| 2026-04-29 15:26 | 65.81935 | 11.81148 | 34745 ft | 444 kts | 21° |
| 2026-04-29 15:26 | 65.87217 | 11.88976 | 34769 ft | 444 kts | 22° |
| 2026-04-29 15:27 | 65.92473 | 11.96979 | 34759 ft | 445 kts | 22° |
| 2026-04-29 15:27 | 65.97707 | 12.04889 | 34755 ft | 444 kts | 22° |
| 2026-04-29 15:28 | 66.02982 | 12.12815 | 34764 ft | 443 kts | 22° |
| 2026-04-29 15:28 | 66.08174 | 12.20793 | 34754 ft | 439 kts | 22° |
| 2026-04-29 15:29 | 66.13354 | 12.28843 | 34751 ft | 440 kts | 22° |
| 2026-04-29 15:30 | 66.23744 | 12.44898 | 34740 ft | 441 kts | 22° |
| 2026-04-29 15:30 | 66.28932 | 12.53009 | 34733 ft | 441 kts | 22° |
| 2026-04-29 15:31 | 66.34096 | 12.61241 | 34732 ft | 441 kts | 22° |
| 2026-04-29 15:31 | 66.39290 | 12.69389 | 34713 ft | 442 kts | 22° |
| 2026-04-29 15:32 | 66.44485 | 12.77616 | 34733 ft | 442 kts | 22° |
| 2026-04-29 15:32 | 66.49691 | 12.85822 | 34720 ft | 442 kts | 22° |
| 2026-04-29 15:33 | 66.54887 | 12.94110 | 34720 ft | 443 kts | 22° |
| 2026-04-29 15:33 | 66.60079 | 13.02437 | 34723 ft | 443 kts | 22° |
| 2026-04-29 15:34 | 66.65261 | 13.10825 | 34714 ft | 443 kts | 22° |
| 2026-04-29 15:34 | 66.70448 | 13.19251 | 34723 ft | 443 kts | 22° |
| 2026-04-29 15:35 | 66.75652 | 13.27664 | 34706 ft | 444 kts | 22° |
| 2026-04-29 15:35 | 66.80848 | 13.36122 | 34696 ft | 444 kts | 23° |
| 2026-04-29 15:36 | 66.86028 | 13.44718 | 34689 ft | 444 kts | 22° |
| 2026-04-29 15:36 | 66.91159 | 13.53316 | 34687 ft | 445 kts | 23° |
| 2026-04-29 15:37 | 66.96320 | 13.62006 | 34737 ft | 441 kts | 23° |
| 2026-04-29 15:37 | 67.01445 | 13.70539 | 34670 ft | 441 kts | 22° |
| 2026-04-29 15:38 | 67.06589 | 13.79115 | 34681 ft | 441 kts | 22° |
| 2026-04-29 15:38 | 67.11728 | 13.87768 | 34660 ft | 442 kts | 22° |
| 2026-04-29 15:39 | 67.16865 | 13.96476 | 34662 ft | 442 kts | 23° |
| 2026-04-29 15:39 | 67.21989 | 14.05271 | 34653 ft | 443 kts | 23° |
| 2026-04-29 15:40 | 67.27114 | 14.14054 | 34647 ft | 442 kts | 22° |
| 2026-04-29 15:40 | 67.32248 | 14.22847 | 34646 ft | 443 kts | 23° |
| 2026-04-29 15:41 | 67.37361 | 14.31734 | 34646 ft | 442 kts | 23° |
| 2026-04-29 15:41 | 67.42462 | 14.40651 | 34658 ft | 441 kts | 23° |
| 2026-04-29 15:42 | 67.47564 | 14.49587 | 34646 ft | 443 kts | 23° |
| 2026-04-29 15:42 | 67.52664 | 14.58620 | 34647 ft | 443 kts | 24° |
| 2026-04-29 15:43 | 67.57777 | 14.67698 | 34648 ft | 444 kts | 23° |
| 2026-04-29 15:43 | 67.62891 | 14.76776 | 34641 ft | 444 kts | 23° |
| 2026-04-29 15:44 | 67.67961 | 14.85892 | 34651 ft | 445 kts | 23° |
| 2026-04-29 15:44 | 67.73099 | 14.95172 | 34635 ft | 445 kts | 23° |
| 2026-04-29 15:45 | 67.78203 | 15.04353 | 34624 ft | 444 kts | 23° |
| 2026-04-29 15:45 | 67.83301 | 15.13618 | 34675 ft | 445 kts | 23° |
| 2026-04-29 15:46 | 67.88388 | 15.22979 | 34624 ft | 444 kts | 23° |
| 2026-04-29 15:46 | 67.93414 | 15.32259 | 34618 ft | 440 kts | 23° |
| 2026-04-29 15:47 | 67.98457 | 15.41541 | 34618 ft | 441 kts | 23° |
| 2026-04-29 15:47 | 68.03495 | 15.50828 | 34610 ft | 441 kts | 23° |
| 2026-04-29 15:48 | 68.08525 | 15.60225 | 34611 ft | 441 kts | 23° |
| 2026-04-29 15:48 | 68.13527 | 15.69524 | 34607 ft | 442 kts | 23° |
| 2026-04-29 15:49 | 68.18552 | 15.79052 | 34603 ft | 443 kts | 23° |
| 2026-04-29 15:49 | 68.23577 | 15.88625 | 34595 ft | 443 kts | 23° |
| 2026-04-29 15:50 | 68.28602 | 15.98225 | 34599 ft | 442 kts | 23° |
| 2026-04-29 15:50 | 68.33626 | 16.07862 | 34594 ft | 443 kts | 23° |
| 2026-04-29 15:51 | 68.38641 | 16.17587 | 34596 ft | 443 kts | 23° |
| 2026-04-29 15:51 | 68.43662 | 16.27344 | 34558 ft | 446 kts | 24° |
| 2026-04-29 15:52 | 68.48738 | 16.37031 | 34612 ft | 447 kts | 23° |
| 2026-04-29 15:52 | 68.53778 | 16.47089 | 34593 ft | 449 kts | 25° |
| 2026-04-29 15:53 | 68.58835 | 16.57113 | 34590 ft | 449 kts | 24° |
| 2026-04-29 15:53 | 68.63895 | 16.67123 | 34583 ft | 448 kts | 24° |
| 2026-04-29 15:54 | 68.68938 | 16.77278 | 34587 ft | 450 kts | 24° |
| 2026-04-29 15:54 | 68.73966 | 16.87631 | 34580 ft | 453 kts | 26° |
| 2026-04-29 15:55 | 68.78979 | 16.98125 | 34588 ft | 454 kts | 27° |
| 2026-04-29 15:55 | 68.83079 | 17.06908 | 34558 ft | 445 kts | 26° |
| 2026-04-29 15:56 | 68.88138 | 17.16626 | 34566 ft | 444 kts | 25° |
| 2026-04-29 15:56 | 68.93108 | 17.26916 | 34565 ft | 446 kts | 26° |
| 2026-04-29 15:57 | 68.98100 | 17.37124 | 34552 ft | 444 kts | 25° |
| 2026-04-29 15:57 | 69.03131 | 17.47161 | 34550 ft | 445 kts | 26° |
| 2026-04-29 15:58 | 69.08119 | 17.57495 | 34540 ft | 448 kts | 27° |
| 2026-04-29 15:58 | 69.13117 | 17.67972 | 34552 ft | 449 kts | 27° |
| 2026-04-29 15:59 | 69.18113 | 17.78521 | 34544 ft | 449 kts | 27° |
| 2026-04-29 15:59 | 69.23098 | 17.89149 | 34543 ft | 450 kts | 28° |
| 2026-04-29 16:00 | 69.28073 | 17.99838 | 34550 ft | 451 kts | 29° |
| 2026-04-29 16:00 | 69.33067 | 18.10524 | 34557 ft | 450 kts | 29° |
| 2026-04-29 16:01 | 69.38046 | 18.21302 | 34551 ft | 451 kts | 30° |
| 2026-04-29 16:01 | 69.42982 | 18.32109 | 34550 ft | 451 kts | 30° |
| 2026-04-29 16:02 | 69.47939 | 18.43075 | 34545 ft | 451 kts | 30° |
| 2026-04-29 16:02 | 69.52900 | 18.54054 | 34545 ft | 451 kts | 29° |
| 2026-04-29 16:03 | 69.57896 | 18.64932 | 34529 ft | 453 kts | 31° |
| 2026-04-29 16:03 | 69.62876 | 18.76048 | 34538 ft | 454 kts | 31° |
| 2026-04-29 16:04 | 69.67890 | 18.87049 | 34552 ft | 450 kts | 27° |
| 2026-04-29 16:04 | 69.70556 | 18.91327 | 34519 ft | 427 kts | 17° |
| 2026-04-29 16:04 | 69.73273 | 18.94151 | 34197 ft | 404 kts | 7° |
| 2026-04-29 16:04 | 69.75972 | 18.95486 | 33716 ft | 385 kts | 357° |
| 2026-04-29 16:05 | 69.78595 | 18.95348 | 33146 ft | 369 kts | 346° |
| 2026-04-29 16:05 | 69.81008 | 18.93620 | 33520 ft | 354 kts | 335° |
| 2026-04-29 16:05 | 69.83251 | 18.90537 | 33436 ft | 361 kts | 325° |
| 2026-04-29 16:06 | 69.86966 | 18.80366 | 33337 ft | 378 kts | 304° |
| 2026-04-29 16:06 | 69.89116 | 18.66154 | 33339 ft | 391 kts | 285° |
| 2026-04-29 16:06 | 69.89469 | 18.58425 | 33075 ft | 382 kts | 276° |
| 2026-04-29 16:07 | 69.89314 | 18.50793 | 32560 ft | 377 kts | 266° |
| 2026-04-29 16:07 | 69.88653 | 18.43416 | 31933 ft | 378 kts | 256° |
| 2026-04-29 16:07 | 69.87527 | 18.36607 | 31227 ft | 383 kts | 246° |
| 2026-04-29 16:07 | 69.85928 | 18.30343 | 30450 ft | 390 kts | 235° |
| 2026-04-29 16:08 | 69.83916 | 18.24938 | 29498 ft | 400 kts | 225° |
| 2026-04-29 16:08 | 69.81500 | 18.20492 | 28401 ft | 412 kts | 214° |
| 2026-04-29 16:08 | 69.78910 | 18.17104 | 27419 ft | 416 kts | 210° |
| 2026-04-29 16:08 | 69.76235 | 18.13902 | 26404 ft | 416 kts | 209° |
| 2026-04-29 16:09 | 69.73555 | 18.10701 | 25342 ft | 417 kts | 209° |
| 2026-04-29 16:09 | 69.70870 | 18.07466 | 24241 ft | 419 kts | 209° |
| 2026-04-29 16:09 | 69.68180 | 18.04183 | 22998 ft | 422 kts | 209° |
| 2026-04-29 16:09 | 69.65483 | 18.00845 | 21744 ft | 422 kts | 209° |
| 2026-04-29 16:10 | 69.62766 | 17.97448 | 20618 ft | 419 kts | 209° |
| 2026-04-29 16:10 | 69.60146 | 17.94150 | 19646 ft | 414 kts | 209° |
| 2026-04-29 16:10 | 69.57522 | 17.90885 | 18708 ft | 409 kts | 209° |
| 2026-04-29 16:10 | 69.54930 | 17.87659 | 17732 ft | 404 kts | 209° |
| 2026-04-29 16:11 | 69.52373 | 17.84479 | 16775 ft | 398 kts | 209° |
| 2026-04-29 16:11 | 69.49857 | 17.81337 | 15826 ft | 392 kts | 209° |
| 2026-04-29 16:11 | 69.47377 | 17.78230 | 14954 ft | 386 kts | 209° |
| 2026-04-29 16:11 | 69.44936 | 17.75161 | 14101 ft | 381 kts | 209° |
| 2026-04-29 16:12 | 69.42531 | 17.72128 | 13234 ft | 376 kts | 209° |
| 2026-04-29 16:12 | 69.40954 | 17.70133 | 12639 ft | 372 kts | 209° |
| 2026-04-29 16:12 | 69.37821 | 17.66178 | 11533 ft | 365 kts | 209° |
| 2026-04-29 16:12 | 69.35522 | 17.63262 | 10725 ft | 360 kts | 209° |
| 2026-04-29 16:13 | 69.33255 | 17.60385 | 9925 ft | 355 kts | 209° |
| 2026-04-29 16:13 | 69.31050 | 17.57579 | 9819 ft | 339 kts | 209° |
| 2026-04-29 16:13 | 69.28883 | 17.54859 | 10703 ft | 335 kts | 209° |
| 2026-04-29 16:13 | 69.26899 | 17.52486 | 12951 ft | 288 kts | 209° |
| 2026-04-29 16:14 | 69.25145 | 17.50500 | 14825 ft | 258 kts | 209° |
| 2026-04-29 16:14 | 69.23598 | 17.48547 | 15818 ft | 237 kts | 223° |
| 2026-04-29 16:14 | 69.22495 | 17.45269 | 15253 ft | 230 kts | 251° |
| 2026-04-29 16:14 | 69.21786 | 17.41287 | 14950 ft | 222 kts | 258° |
| 2026-04-29 16:15 | 69.21692 | 17.37170 | 14565 ft | 208 kts | 290° |
| 2026-04-29 16:15 | 69.22489 | 17.33873 | 14187 ft | 209 kts | 322° |
| 2026-04-29 16:15 | 69.23888 | 17.32596 | 13782 ft | 223 kts | 355° |
| 2026-04-29 16:15 | 69.25414 | 17.33913 | 13297 ft | 243 kts | 27° |
| 2026-04-29 16:16 | 69.26568 | 17.37612 | 12767 ft | 262 kts | 54° |
| 2026-04-29 16:16 | 69.27425 | 17.42219 | 12309 ft | 267 kts | 56° |
| 2026-04-29 16:16 | 69.28293 | 17.46898 | 11876 ft | 271 kts | 56° |
| 2026-04-29 16:16 | 69.29179 | 17.51665 | 11344 ft | 277 kts | 56° |
| 2026-04-29 16:17 | 69.30081 | 17.56466 | 10786 ft | 284 kts | 56° |
| 2026-04-29 16:17 | 69.31025 | 17.61437 | 10201 ft | 291 kts | 56° |
| 2026-04-29 16:17 | 69.32007 | 17.66513 | 9627 ft | 294 kts | 56° |
| 2026-04-29 16:17 | 69.32959 | 17.71353 | 10173 ft | 275 kts | 56° |
| 2026-04-29 16:18 | 69.33909 | 17.76224 | 10591 ft | 295 kts | 56° |
| 2026-04-29 16:18 | 69.34988 | 17.81197 | 10589 ft | 296 kts | 44° |
| 2026-04-29 16:18 | 69.36431 | 17.85327 | 10536 ft | 298 kts | 38° |
| 2026-04-29 16:18 | 69.38034 | 17.88998 | 10306 ft | 294 kts | 29° |
| 2026-04-29 16:19 | 69.39748 | 17.92100 | 10052 ft | 290 kts | 25° |
| 2026-04-29 16:19 | 69.41480 | 17.94945 | 9960 ft | 284 kts | 24° |
| 2026-04-29 16:19 | 69.43199 | 17.97747 | 9963 ft | 286 kts | 24° |
| 2026-04-29 16:19 | 69.44926 | 18.00564 | 9962 ft | 287 kts | 24° |
| 2026-04-29 16:20 | 69.46659 | 18.03392 | 9965 ft | 287 kts | 24° |
| 2026-04-29 16:20 | 69.48395 | 18.06236 | 9962 ft | 288 kts | 24° |
| 2026-04-29 16:20 | 69.50135 | 18.09085 | 9956 ft | 288 kts | 24° |
| 2026-04-29 16:20 | 69.51873 | 18.11946 | 9960 ft | 288 kts | 24° |
| 2026-04-29 16:21 | 69.53608 | 18.14802 | 9954 ft | 288 kts | 24° |
| 2026-04-29 16:21 | 69.55343 | 18.17662 | 9949 ft | 289 kts | 24° |
| 2026-04-29 16:21 | 69.57079 | 18.20529 | 9953 ft | 288 kts | 24° |
| 2026-04-29 16:21 | 69.58811 | 18.23403 | 9954 ft | 288 kts | 24° |
| 2026-04-29 16:22 | 69.60548 | 18.26280 | 9946 ft | 289 kts | 25° |
| 2026-04-29 16:22 | 69.62293 | 18.29172 | 9950 ft | 290 kts | 25° |
| 2026-04-29 16:22 | 69.64039 | 18.32086 | 9948 ft | 291 kts | 25° |
| 2026-04-29 16:22 | 69.65784 | 18.35004 | 9969 ft | 290 kts | 25° |
| 2026-04-29 16:23 | 69.67531 | 18.37916 | 9945 ft | 290 kts | 25° |
| 2026-04-29 16:23 | 69.69277 | 18.40834 | 9950 ft | 290 kts | 25° |
| 2026-04-29 16:23 | 69.71020 | 18.43754 | 9877 ft | 292 kts | 25° |
| 2026-04-29 16:23 | 69.72785 | 18.46722 | 9570 ft | 292 kts | 25° |
| 2026-04-29 16:24 | 69.74557 | 18.49484 | 9297 ft | 287 kts | 21° |
| 2026-04-29 16:24 | 69.76346 | 18.51986 | 9043 ft | 286 kts | 21° |
| 2026-04-29 16:24 | 69.78137 | 18.54499 | 8752 ft | 286 kts | 21° |
| 2026-04-29 16:24 | 69.79917 | 18.57057 | 8472 ft | 285 kts | 21° |
| 2026-04-29 16:25 | 69.81684 | 18.59619 | 8224 ft | 283 kts | 22° |
| 2026-04-29 16:25 | 69.83441 | 18.62190 | 7976 ft | 283 kts | 22° |
| 2026-04-29 16:25 | 69.85199 | 18.64762 | 7727 ft | 283 kts | 22° |
| 2026-04-29 16:25 | 69.86957 | 18.67349 | 7496 ft | 283 kts | 22° |
| 2026-04-29 16:26 | 69.88717 | 18.69930 | 7216 ft | 283 kts | 22° |
| 2026-04-29 16:26 | 69.90465 | 18.72506 | 6964 ft | 281 kts | 22° |
| 2026-04-29 16:26 | 69.92201 | 18.75076 | 6750 ft | 280 kts | 23° |
| 2026-04-29 16:26 | 69.93945 | 18.77662 | 6500 ft | 281 kts | 23° |
| 2026-04-29 16:27 | 69.95623 | 18.80612 | 6203 ft | 285 kts | 39° |
| 2026-04-29 16:27 | 69.96693 | 18.85445 | 5944 ft | 288 kts | 72° |
| 2026-04-29 16:27 | 69.96752 | 18.91221 | 5721 ft | 288 kts | 106° |
| 2026-04-29 16:27 | 69.95903 | 18.96441 | 5481 ft | 285 kts | 124° |
| 2026-04-29 16:28 | 69.94952 | 19.01511 | 5198 ft | 286 kts | 116° |
| 2026-04-29 16:28 | 69.94115 | 19.06647 | 4862 ft | 281 kts | 127° |
| 2026-04-29 16:28 | 69.92686 | 19.10251 | 4599 ft | 269 kts | 161° |
| 2026-04-29 16:28 | 69.90885 | 19.10913 | 4406 ft | 255 kts | 195° |
| 2026-04-29 16:29 | 69.89269 | 19.09082 | 4150 ft | 248 kts | 213° |
| 2026-04-29 16:29 | 69.87803 | 19.06579 | 3913 ft | 247 kts | 213° |
| 2026-04-29 16:29 | 69.86345 | 19.04324 | 3589 ft | 230 kts | 210° |
| 2026-04-29 16:29 | 69.84897 | 19.02658 | 3183 ft | 216 kts | 195° |
| 2026-04-29 16:30 | 69.83434 | 19.02109 | 2814 ft | 208 kts | 192° |
| 2026-04-29 16:30 | 69.82052 | 19.01183 | 2454 ft | 200 kts | 199° |
| 2026-04-29 16:30 | 69.80734 | 19.00157 | 2109 ft | 192 kts | 194° |
| 2026-04-29 16:30 | 69.79464 | 18.99390 | 1791 ft | 182 kts | 193° |
| 2026-04-29 16:31 | 69.78297 | 18.98591 | 1903 ft | 158 kts | 195° |
| 2026-04-29 16:31 | 69.77212 | 18.97838 | 2047 ft | 163 kts | 195° |
| 2026-04-29 16:31 | 69.76119 | 18.97124 | 2107 ft | 154 kts | 195° |
| 2026-04-29 16:31 | 69.75086 | 18.96424 | 1741 ft | 153 kts | 194° |
| 2026-04-29 16:32 | 69.74104 | 18.95760 | 1477 ft | 142 kts | 194° |
| 2026-04-29 16:32 | 69.73467 | 18.95337 | 1286 ft | 136 kts | 193° |
| 2026-04-29 16:32 | 69.72281 | 18.94537 | 928 ft | 128 kts | 193° |
| 2026-04-29 16:32 | 69.71424 | 18.93962 | 692 ft | 121 kts | 193° |
| 2026-04-29 16:33 | 69.69817 | 18.92913 | 255 ft | 118 kts | 193° |
| 2026-04-29 16:33 | 69.69026 | 18.92364 | 50 ft | 116 kts | 194° |
| 2026-04-29 16:33 | 69.68319 | 18.91876 | 29 ft | 84 kts | 192° |
| 2026-04-29 16:34 | 69.67938 | 18.91625 | 38 ft | 45 kts | 193° |
| 2026-04-29 16:34 | 69.67757 | 18.91502 | 39 ft | 13 kts | 193° |
| 2026-04-29 16:34 | 69.67744 | 18.91303 | 35 ft | 13 kts | 286° |
| 2026-04-29 16:34 | 69.67787 | 18.91076 | 33 ft | 11 kts | 347° |
| 2026-04-29 16:35 | 69.67822 | 18.90996 | 33 ft | 6 kts | 282° |
| 2026-04-29 16:35 | 69.67832 | 18.90863 | 33 ft | 7 kts | 282° |
| 2026-04-29 16:35 | 69.67835 | 18.90828 | 33 ft | 0 kts | 281° |